createdAt,value
2022-08-22T00:02:52.017Z,21.8
2022-08-22T00:08:03.991Z,17.8
2022-08-22T00:18:05.553Z,17.6
2022-08-22T00:28:05.113Z,17.5
2022-08-22T00:38:05.358Z,17.4
2022-08-22T00:48:05.795Z,17.2
2022-08-22T00:58:06.001Z,17.1
2022-08-22T01:08:06.154Z,17
2022-08-22T01:18:07.206Z,16.9
2022-08-22T01:28:08.222Z,16.7
2022-08-22T01:38:08.918Z,16.5
2022-08-22T01:48:09.985Z,16.4
2022-08-22T01:58:10.145Z,16.3
2022-08-22T02:08:10.664Z,16.1
2022-08-22T02:18:11.734Z,16
2022-08-22T02:28:12.279Z,15.8
2022-08-22T02:38:12.309Z,15.8
2022-08-22T02:48:13.033Z,15.8
2022-08-22T02:58:13.260Z,16
2022-08-22T03:08:13.558Z,16.2
2022-08-22T03:18:14.056Z,16.1
2022-08-22T03:28:14.410Z,15.9
2022-08-22T03:38:15.240Z,15.7
2022-08-22T03:48:15.751Z,15.6
2022-08-22T03:58:19.221Z,15.4
2022-08-22T04:08:17.543Z,15.3
2022-08-22T04:18:18.168Z,15.4
2022-08-22T04:28:18.883Z,15.6
2022-08-22T04:48:19.765Z,15.7
2022-08-22T04:58:20.010Z,15.8
2022-08-22T05:08:20.315Z,16
2022-08-22T05:28:21.266Z,16.5
2022-08-22T05:38:21.456Z,16.7
2022-08-22T05:48:22.222Z,16.9
2022-08-22T05:58:22.497Z,17.2
2022-08-22T06:08:22.994Z,17.5
2022-08-22T06:18:23.467Z,17.8
2022-08-22T06:28:23.759Z,18
2022-08-22T06:38:24.028Z,17.9
2022-08-22T06:48:24.478Z,18.1
2022-08-22T06:58:25.147Z,18.4
2022-08-22T07:08:26.214Z,18.8
2022-08-22T07:18:26.607Z,18.9
2022-08-22T07:28:36.797Z,19.2
2022-08-22T07:38:27.673Z,19.3
2022-08-22T07:48:28.462Z,19.5
2022-08-22T07:58:29.497Z,19.7
2022-08-22T08:08:30.445Z,20
2022-08-22T08:18:30.993Z,20.2
2022-08-22T08:28:32.003Z,20.5
2022-08-22T08:38:32.734Z,20.6
2022-08-22T08:48:33.324Z,21.2
2022-08-22T08:58:34.299Z,22
2022-08-22T09:08:35.317Z,22.3
2022-08-22T09:18:36.121Z,22.5
2022-08-22T09:28:36.557Z,22.9
2022-08-22T09:38:36.708Z,23.6
2022-08-22T09:48:37.654Z,24.3
2022-08-22T09:58:41.675Z,24.5
2022-08-22T10:08:38.895Z,24.8
2022-08-22T10:18:44.101Z,24.8
2022-08-22T10:28:39.904Z,25.8
2022-08-22T10:38:44.125Z,25.9
2022-08-22T10:48:41.347Z,26.1
2022-08-22T10:58:42.410Z,26.4
2022-08-22T11:08:42.672Z,26.4
2022-08-22T11:18:43.212Z,27.1
2022-08-22T11:28:44.236Z,26.5
2022-08-22T11:38:44.457Z,26.4
2022-08-22T11:48:47.855Z,26.8
2022-08-22T11:58:45.257Z,26.7
2022-08-22T12:18:45.761Z,26.6
2022-08-22T12:28:46.004Z,26.6
2022-08-22T12:38:46.751Z,26.8
2022-08-22T12:48:47.794Z,26.5
2022-08-22T12:58:51.313Z,26.9
2022-08-22T13:08:48.934Z,26.8
2022-08-22T13:18:53.408Z,27.5
2022-08-22T13:29:00.244Z,27.6
2022-08-22T13:38:50.442Z,27.4
2022-08-22T13:48:51.242Z,27.7
2022-08-22T13:58:52.132Z,27.7
2022-08-22T14:08:52.538Z,27.5
2022-08-22T14:18:52.724Z,27.6
2022-08-22T14:28:52.797Z,27.6
2022-08-22T14:38:53.621Z,27.5
2022-08-22T14:48:53.757Z,27.5
2022-08-22T14:58:54.721Z,27.6
2022-08-22T15:08:55.669Z,27.6
2022-08-22T15:18:56.346Z,27.5
2022-08-22T15:28:57.082Z,27.6
2022-08-22T15:38:57.482Z,28.1
2022-08-22T15:48:57.721Z,28
2022-08-22T15:49:19.624Z,28
2022-08-22T15:59:03.762Z,27.5
2022-08-22T16:09:04.303Z,27.1
2022-08-22T16:19:04.789Z,27.1
2022-08-22T16:29:05.746Z,27.1
2022-08-22T16:39:06.419Z,27
2022-08-22T16:49:06.642Z,27
2022-08-22T16:59:22.229Z,27.2
2022-08-22T17:09:07.803Z,27.2
2022-08-22T17:19:08.381Z,26.9
2022-08-22T17:29:09.197Z,26.7
2022-08-22T17:39:09.774Z,26.5
2022-08-22T18:09:13.702Z,25.9
2022-08-22T18:19:12.571Z,25.6
2022-08-22T18:29:13.532Z,25.2
2022-08-22T18:39:14.216Z,24.8
2022-08-22T18:49:15.945Z,24.6
2022-08-22T18:59:16.114Z,24.4
2022-08-22T19:09:16.413Z,24.2
2022-08-22T19:19:17.715Z,24
2022-08-22T19:29:18.383Z,23.9
2022-08-22T19:39:19.441Z,23.8
2022-08-22T19:49:20.226Z,23.6
2022-08-22T19:59:20.876Z,23.4
2022-08-22T20:09:21.649Z,23.3
2022-08-22T20:19:22.602Z,23.2
2022-08-22T20:29:23.241Z,23.1
2022-08-22T20:49:24.375Z,22.7
2022-08-22T20:59:24.535Z,22.6
2022-08-22T21:09:25.620Z,22.4
2022-08-22T21:19:26.621Z,22.3
2022-08-22T21:29:26.977Z,22.1
2022-08-22T21:39:27.579Z,22.1
2022-08-22T21:59:40.195Z,21.9
2022-08-22T22:09:28.757Z,21.8
2022-08-22T22:19:29.195Z,21.8
2022-08-22T22:39:30.868Z,21.5
2022-08-22T22:59:32.649Z,21.1
2022-08-22T23:09:38.260Z,21.1
2022-08-22T23:19:33.664Z,21.2
2022-08-22T23:29:33.938Z,21.1
2022-08-22T23:39:34.876Z,20.8
2022-08-22T23:59:36.155Z,20.7
